Time;durP1;ratioP1;P1;durP2;ratioP2;P2;SDS_P1;SDS_P2;PMS_P1;PMS_P2;Temp;Humidity;BMP_temperature;BMP_pressure;BME280_temperature;BME280_humidity;BME280_pressure;Samples;Min_cycle;Max_cycle;Signal;HPM_P1;HPM_P2
2021/08/08 00:00:42;;;;;;;6.95;2.85;;;;;;;23.68;50.89;98699.63;4425948;32;20158;-68
2021/08/08 00:03:08;;;;;;;7.87;2.75;;;;;;;23.58;50.88;98702.31;4424726;32;20057;-69
2021/08/08 00:05:34;;;;;;;8.70;2.70;;;;;;;23.31;51.36;98704.06;4425402;32;20080;-68
2021/08/08 00:07:59;;;;;;;4.40;2.37;;;;;;;23.47;50.77;98694.09;4424058;32;20079;-69
2021/08/08 00:10:25;;;;;;;8.05;3.00;;;;;;;23.97;49.71;98700.91;4426679;32;20123;-67
2021/08/08 00:12:51;;;;;;;4.62;2.33;;;;;;;23.76;50.51;98703.22;4425118;32;20137;-67
2021/08/08 00:15:17;;;;;;;8.88;2.95;;;;;;;23.89;49.93;98705.87;4426795;32;20030;-67
2021/08/08 00:17:42;;;;;;;5.80;2.62;;;;;;;23.98;49.15;98708.16;4425378;32;20026;-68
2021/08/08 00:20:10;;;;;;;5.90;2.47;;;;;;;24.13;49.05;98702.38;4423712;32;20340;-68
2021/08/08 00:22:36;;;;;;;13.43;2.70;;;;;;;24.32;48.63;98697.69;4424502;32;20103;-68
2021/08/08 00:25:04;;;;;;;7.50;2.75;;;;;;;24.15;48.79;98700.47;4427172;32;20389;-68
2021/08/08 00:27:31;;;;;;;7.37;2.60;;;;;;;24.33;48.61;98702.09;4423091;32;20498;-68
2021/08/08 00:29:56;;;;;;;8.65;2.97;;;;;;;24.20;48.66;98698.72;4421300;32;20049;-67
2021/08/08 00:32:23;;;;;;;5.12;2.83;;;;;;;24.16;48.76;98710.59;4426097;32;20194;-68
2021/08/08 00:34:49;;;;;;;9.10;2.87;;;;;;;24.26;48.62;98705.75;4427044;32;20455;-68
2021/08/08 00:37:15;;;;;;;6.62;2.90;;;;;;;23.98;48.90;98714.69;4423073;32;20460;-68
2021/08/08 00:39:40;;;;;;;9.18;2.85;;;;;;;23.88;49.38;98707.22;4427071;32;20055;-68
2021/08/08 00:42:06;;;;;;;4.90;2.60;;;;;;;23.91;49.61;98712.59;4419780;32;20128;-68
2021/08/08 00:44:32;;;;;;;7.50;2.80;;;;;;;23.75;50.09;98713.19;4427321;32;20071;-67
2021/08/08 00:46:57;;;;;;;8.50;2.83;;;;;;;23.67;50.28;98712.44;4425542;32;20470;-67
2021/08/08 00:49:24;;;;;;;6.93;3.20;;;;;;;23.58;50.67;98707.28;4424885;32;20052;-67
2021/08/08 00:51:50;;;;;;;5.43;2.83;;;;;;;23.83;50.19;98706.09;4425301;32;20029;-68
2021/08/08 00:54:17;;;;;;;7.30;2.90;;;;;;;23.46;50.58;98706.94;4425945;32;20459;-68
2021/08/08 00:56:42;;;;;;;10.18;2.60;;;;;;;23.58;50.64;98710.16;4424484;32;20030;-68
2021/08/08 00:59:08;;;;;;;9.57;2.87;;;;;;;23.47;50.39;98712.09;4424998;32;20402;-68
2021/08/08 01:01:40;;;;;;;8.88;2.90;;;;;;;23.46;50.45;98707.69;4425966;32;20329;-68
2021/08/08 01:04:09;;;;;;;6.65;2.95;;;;;;;23.67;50.68;98710.34;4426102;32;20045;-68
2021/08/08 01:09:13;;;;;;;8.75;3.33;;;;;;;24.09;49.86;98708.53;3980083;32;15150315;-69
2021/08/08 01:11:40;;;;;;;8.55;2.90;;;;;;;24.09;49.86;98708.53;4437173;32;20083;-69
2021/08/08 01:14:07;;;;;;;9.02;2.67;;;;;;;23.90;49.71;98711.03;4437823;32;20034;-67
2021/08/08 01:16:35;;;;;;;8.27;2.92;;;;;;;23.60;49.89;98707.47;4437688;32;20444;-69
2021/08/08 01:19:05;;;;;;;6.05;2.47;;;;;;;23.65;50.07;98709.41;4438583;32;20041;-69
2021/08/08 01:21:33;;;;;;;8.68;3.17;;;;;;;23.47;50.40;98703.47;4437203;32;20500;-68
2021/08/08 01:24:02;;;;;;;9.02;3.10;;;;;;;23.79;49.69;98720.09;4435977;32;20116;-69
2021/08/08 01:26:31;;;;;;;9.55;2.67;;;;;;;23.88;49.62;98708.00;4437579;32;20059;-69
2021/08/08 01:28:58;;;;;;;5.87;2.40;;;;;;;23.90;49.33;98708.16;4435920;32;20159;-69
2021/08/08 01:31:24;;;;;;;6.93;2.80;;;;;;;23.73;49.53;98698.63;4437684;32;20070;-69
2021/08/08 01:33:50;;;;;;;10.05;3.17;;;;;;;23.43;50.10;98702.34;4437039;32;20029;-69
2021/08/08 01:36:17;;;;;;;8.75;3.05;;;;;;;23.10;50.83;98703.50;4439220;32;20540;-68
2021/08/08 01:38:47;;;;;;;6.12;2.87;;;;;;;23.42;50.92;98703.69;4435818;32;20508;-68
2021/08/08 01:41:15;;;;;;;9.48;3.03;;;;;;;23.78;50.32;98707.06;4435148;32;20025;-68
2021/08/08 01:43:44;;;;;;;8.15;3.17;;;;;;;23.71;50.61;98707.84;4434996;32;20094;-68
2021/08/08 01:46:14;;;;;;;12.02;3.10;;;;;;;23.50;51.48;98699.47;4437939;32;20029;-68
2021/08/08 01:48:45;;;;;;;7.93;2.87;;;;;;;23.71;51.19;98704.22;4434637;32;20090;-68
2021/08/08 01:51:12;;;;;;;6.87;2.60;;;;;;;23.66;50.65;98703.06;4435956;32;20033;-68
2021/08/08 01:53:39;;;;;;;9.85;3.25;;;;;;;23.22;51.25;98698.88;4434574;32;20034;-68
2021/08/08 01:56:05;;;;;;;7.37;2.90;;;;;;;23.19;51.39;98706.53;4434002;32;20065;-68
2021/08/08 01:58:31;;;;;;;7.07;3.03;;;;;;;23.19;51.49;98706.53;4432707;32;20347;-68
2021/08/08 02:00:57;;;;;;;6.35;3.08;;;;;;;23.12;51.76;98706.53;4430627;32;20065;-68
2021/08/08 02:03:35;;;;;;;9.48;3.12;;;;;;;23.54;51.33;98705.56;4434560;32;20030;-68
2021/08/08 02:06:02;;;;;;;6.97;3.10;;;;;;;23.43;51.44;98703.09;4435644;32;20056;-68
2021/08/08 02:08:28;;;;;;;8.50;2.90;;;;;;;23.61;50.72;98706.91;4438820;32;20049;-68
2021/08/08 02:10:53;;;;;;;5.12;3.25;;;;;;;23.54;50.56;98708.44;4434967;32;20481;-68
2021/08/08 02:13:20;;;;;;;4.90;2.35;;;;;;;23.45;50.43;98703.31;4434403;32;20056;-68
2021/08/08 02:15:46;;;;;;;8.02;2.67;;;;;;;23.74;49.98;98703.81;4434162;32;20168;-68
2021/08/08 02:18:13;;;;;;;7.12;2.70;;;;;;;23.56;50.26;98709.97;4436474;32;20095;-68
2021/08/08 02:20:38;;;;;;;4.82;2.45;;;;;;;23.58;49.88;98718.78;4426253;32;20041;-68
2021/08/08 02:23:04;;;;;;;5.30;2.28;;;;;;;23.87;49.26;98720.06;4426026;32;20064;-68
2021/08/08 02:25:30;;;;;;;6.20;2.55;;;;;;;23.66;49.56;98719.53;4424654;32;20078;-68
2021/08/08 02:27:56;;;;;;;5.53;2.40;;;;;;;23.71;49.34;98725.06;4420333;32;20096;-68
2021/08/08 02:30:22;;;;;;;7.72;2.58;;;;;;;23.89;49.44;98721.00;4423858;32;20101;-69
2021/08/08 02:32:48;;;;;;;5.93;2.72;;;;;;;23.84;49.02;98732.72;4425227;32;20017;-69
2021/08/08 02:35:14;;;;;;;5.53;2.20;;;;;;;23.59;49.66;98720.31;4426261;32;20163;-68
2021/08/08 02:37:40;;;;;;;4.32;2.45;;;;;;;23.97;48.86;98727.53;4421107;32;20057;-68
2021/08/08 02:40:06;;;;;;;8.15;2.40;;;;;;;24.27;48.30;98723.78;4424625;32;20182;-68
2021/08/08 02:42:32;;;;;;;6.53;2.42;;;;;;;24.19;48.08;98732.44;4426174;32;20053;-68
2021/08/08 02:44:58;;;;;;;4.53;2.72;;;;;;;24.22;47.72;98728.41;4426224;32;21158;-69
2021/08/08 02:47:27;;;;;;;8.80;2.85;;;;;;;24.27;47.75;98727.41;4422083;32;20165;-69
2021/08/08 02:49:53;;;;;;;6.47;2.75;;;;;;;23.85;48.34;98729.25;4421664;32;20481;-68
2021/08/08 02:52:19;;;;;;;3.83;2.05;;;;;;;23.95;48.52;98733.09;4427066;32;20956;-68
2021/08/08 02:54:45;;;;;;;5.22;2.25;;;;;;;24.07;48.09;98734.19;4425326;32;20030;-68
2021/08/08 02:57:11;;;;;;;5.87;2.42;;;;;;;24.00;48.16;98746.50;4424577;32;20025;-68
2021/08/08 02:59:36;;;;;;;6.25;2.25;;;;;;;23.99;48.01;98749.94;4423191;32;20078;-68
2021/08/08 03:02:03;;;;;;;8.00;2.42;;;;;;;24.07;48.25;98748.56;4420812;32;20092;-68
2021/08/08 03:04:29;;;;;;;8.27;2.20;;;;;;;24.11;47.95;98754.69;4425245;32;20045;-69
2021/08/08 03:06:55;;;;;;;7.57;1.95;;;;;;;24.19;47.37;98757.53;4421215;32;20030;-69
2021/08/08 03:09:21;;;;;;;6.25;2.03;;;;;;;24.31;47.51;98755.75;4424379;32;20041;-69
2021/08/08 03:11:47;;;;;;;6.55;2.12;;;;;;;24.50;46.81;98748.22;4422845;32;20066;-68
2021/08/08 03:14:14;;;;;;;5.03;1.87;;;;;;;24.21;47.73;98760.59;4424824;32;20030;-69
2021/08/08 03:16:41;;;;;;;3.67;1.87;;;;;;;24.42;47.19;98758.97;4422440;32;20099;-68
2021/08/08 03:19:07;;;;;;;4.40;1.80;;;;;;;24.22;47.81;98754.28;4424383;32;20225;-68
2021/08/08 03:21:33;;;;;;;4.45;1.98;;;;;;;24.20;47.28;98759.81;4423765;32;20478;-69
2021/08/08 03:23:58;;;;;;;3.40;1.60;;;;;;;24.09;48.21;98759.47;4423785;32;20470;-69
2021/08/08 03:26:25;;;;;;;3.30;1.40;;;;;;;23.76;48.76;98754.94;4423084;32;20462;-69
2021/08/08 03:28:50;;;;;;;4.90;1.60;;;;;;;23.78;48.77;98755.91;4424711;32;20207;-68
2021/08/08 03:31:17;;;;;;;3.20;1.50;;;;;;;23.95;48.78;98764.69;4423406;32;20069;-69
2021/08/08 03:33:43;;;;;;;2.47;1.42;;;;;;;23.92;48.67;98762.16;4423693;32;20069;-68
2021/08/08 03:36:11;;;;;;;4.18;1.73;;;;;;;23.64;49.39;98763.19;4421951;32;20160;-69
2021/08/08 03:38:37;;;;;;;1.95;1.20;;;;;;;23.78;49.06;98764.50;4424908;32;20593;-69
2021/08/08 03:41:03;;;;;;;3.33;1.30;;;;;;;23.63;49.55;98758.78;4422483;32;20246;-68
2021/08/08 03:43:28;;;;;;;6.22;1.37;;;;;;;23.68;49.52;98763.56;4421764;32;20034;-68
2021/08/08 03:45:54;;;;;;;3.62;1.12;;;;;;;23.26;50.09;98760.31;4424376;32;20099;-68
2021/08/08 03:48:20;;;;;;;2.95;1.10;;;;;;;23.16;50.88;98744.22;4421515;32;20094;-68
2021/08/08 03:50:46;;;;;;;3.17;1.10;;;;;;;23.05;51.18;98753.97;4420437;32;20049;-68
2021/08/08 03:53:11;;;;;;;2.90;1.15;;;;;;;23.00;51.47;98752.06;4423258;32;20135;-68
2021/08/08 03:55:37;;;;;;;1.95;1.30;;;;;;;23.06;51.26;98752.63;4425119;32;20067;-68
2021/08/08 03:58:03;;;;;;;4.00;1.00;;;;;;;22.97;51.43;98749.56;4422337;32;20450;-68
2021/08/08 04:00:28;;;;;;;2.92;0.95;;;;;;;22.92;51.94;98748.41;4424228;32;20168;-68
2021/08/08 04:02:54;;;;;;;4.50;1.10;;;;;;;22.67;52.49;98750.25;4425031;32;20022;-68
2021/08/08 04:05:20;;;;;;;2.90;1.10;;;;;;;22.62;52.74;98753.31;4424985;32;20093;-68
2021/08/08 04:07:46;;;;;;;3.58;1.15;;;;;;;22.48;53.07;98749.78;4423865;32;20041;-68
2021/08/08 04:10:12;;;;;;;3.35;1.35;;;;;;;22.73;52.94;98738.63;4423166;32;20405;-68
2021/08/08 04:12:37;;;;;;;2.22;1.35;;;;;;;22.55;53.70;98745.47;4425526;32;20025;-68
2021/08/08 04:15:04;;;;;;;4.40;1.40;;;;;;;22.50;54.27;98746.38;4425095;32;20072;-68
2021/08/08 04:17:31;;;;;;;2.95;1.50;;;;;;;22.69;54.47;98755.44;4424034;32;20072;-68
2021/08/08 04:19:57;;;;;;;3.33;1.52;;;;;;;22.57;54.47;98748.50;4424368;32;20104;-68
2021/08/08 04:22:23;;;;;;;4.62;1.48;;;;;;;22.22;55.27;98744.34;4423911;32;20038;-68
2021/08/08 04:24:49;;;;;;;4.28;1.60;;;;;;;22.54;54.61;98741.03;4419358;32;20426;-68
2021/08/08 04:27:15;;;;;;;5.57;1.48;;;;;;;22.51;54.75;98747.91;4425320;32;20140;-68
2021/08/08 04:29:41;;;;;;;3.40;1.60;;;;;;;22.52;54.49;98749.47;4423712;32;20104;-68
2021/08/08 04:32:08;;;;;;;3.22;1.73;;;;;;;22.57;54.34;98757.88;4424968;32;20127;-68
2021/08/08 04:34:34;;;;;;;4.28;1.50;;;;;;;22.71;54.29;98747.03;4421452;32;20086;-68
2021/08/08 04:37:00;;;;;;;4.20;1.48;;;;;;;22.41;54.69;98756.28;4421005;32;20428;-68
2021/08/08 04:39:26;;;;;;;2.90;1.37;;;;;;;22.57;54.73;98763.63;4423722;32;20034;-68
2021/08/08 04:41:53;;;;;;;2.15;1.37;;;;;;;22.54;54.40;98761.09;4419264;32;20497;-67
2021/08/08 04:44:19;;;;;;;3.08;1.40;;;;;;;22.31;55.11;98754.50;4418431;32;20126;-68
2021/08/08 04:46:45;;;;;;;3.72;1.27;;;;;;;22.22;55.58;98764.41;4419762;32;20112;-68
2021/08/08 04:49:12;;;;;;;6.75;1.30;;;;;;;22.26;55.43;98753.34;4421755;32;20080;-67
2021/08/08 04:51:39;;;;;;;3.92;1.70;;;;;;;22.28;55.23;98769.97;4420645;32;20068;-68
2021/08/08 04:54:05;;;;;;;4.43;1.60;;;;;;;22.09;55.70;98761.66;4424619;32;20030;-67
2021/08/08 04:56:30;;;;;;;3.30;1.83;;;;;;;22.22;55.48;98767.28;4424841;32;20034;-68
2021/08/08 04:58:57;;;;;;;3.42;1.75;;;;;;;22.24;55.46;98763.84;4422912;32;20828;-68
2021/08/08 05:01:22;;;;;;;5.72;2.03;;;;;;;21.99;56.09;98777.09;4420612;32;20242;-67
2021/08/08 05:03:48;;;;;;;6.85;1.90;;;;;;;22.22;55.92;98775.09;4420343;32;20160;-67
2021/08/08 05:06:14;;;;;;;3.25;1.58;;;;;;;22.32;55.96;98776.09;4423776;32;20718;-67
2021/08/08 05:08:39;;;;;;;7.93;2.00;;;;;;;22.22;56.27;98772.22;4420619;32;20131;-68
2021/08/08 05:11:05;;;;;;;4.62;2.10;;;;;;;22.18;56.39;98771.84;4421301;32;20470;-67
2021/08/08 05:13:31;;;;;;;6.57;2.40;;;;;;;22.05;56.95;98767.00;4420216;32;20103;-67
2021/08/08 05:15:57;;;;;;;5.37;2.33;;;;;;;22.10;57.19;98768.16;4420268;32;20129;-67
2021/08/08 05:18:23;;;;;;;6.57;2.40;;;;;;;21.96;57.38;98766.75;4425007;32;20162;-67
2021/08/08 05:20:49;;;;;;;4.10;1.98;;;;;;;22.14;57.00;98774.28;4419378;32;20045;-67
2021/08/08 05:23:15;;;;;;;6.80;2.28;;;;;;;22.13;57.25;98767.03;4422834;32;20101;-67
2021/08/08 05:25:40;;;;;;;3.55;1.98;;;;;;;22.11;57.12;98770.47;4422242;32;20061;-67
2021/08/08 05:28:06;;;;;;;5.05;1.83;;;;;;;21.96;57.56;98781.09;4424686;32;20034;-66
2021/08/08 05:30:32;;;;;;;4.93;2.28;;;;;;;22.10;57.12;98779.63;4421145;32;20025;-67
2021/08/08 05:32:58;;;;;;;3.58;2.00;;;;;;;22.37;56.73;98778.03;4425023;32;21151;-67
2021/08/08 05:35:24;;;;;;;3.17;1.98;;;;;;;22.49;56.35;98779.97;4422052;32;20425;-67
2021/08/08 05:37:49;;;;;;;3.17;1.83;;;;;;;22.54;55.76;98767.63;4424317;32;20147;-67
2021/08/08 05:40:15;;;;;;;5.85;1.67;;;;;;;22.92;55.32;98777.06;4419848;32;20033;-67
2021/08/08 05:42:49;;;;;;;5.07;2.20;;;;;;;22.80;55.23;98773.03;4422034;32;20073;-67
2021/08/08 05:45:19;;;;;;;2.28;1.35;;;;;;;23.16;54.25;98775.78;4422506;32;20074;-67
2021/08/08 05:47:45;;;;;;;5.62;1.48;;;;;;;23.32;53.90;98760.16;4420469;32;20129;-67
2021/08/08 05:50:10;;;;;;;2.25;1.55;;;;;;;23.34;53.99;98768.94;4423156;32;20370;-67
2021/08/08 05:52:36;;;;;;;3.35;1.42;;;;;;;23.24;54.43;98770.84;4421550;32;20026;-67
2021/08/08 05:55:02;;;;;;;3.95;1.55;;;;;;;23.20;54.55;98764.69;4422837;32;20061;-67
2021/08/08 05:57:28;;;;;;;4.32;1.40;;;;;;;23.38;54.00;98769.34;4421604;32;20069;-67
2021/08/08 05:59:54;;;;;;;3.53;1.60;;;;;;;23.19;54.38;98771.75;4424838;32;20095;-67
2021/08/08 06:02:19;;;;;;;2.97;1.52;;;;;;;23.33;54.15;98770.28;4423616;32;20037;-67
2021/08/08 06:04:49;;;;;;;3.35;1.30;;;;;;;23.22;54.48;98780.00;4424368;32;20087;-67
2021/08/08 06:07:16;;;;;;;4.22;1.70;;;;;;;23.68;53.41;98780.03;4422733;32;20146;-67
2021/08/08 06:09:41;;;;;;;3.95;1.50;;;;;;;23.57;53.93;98783.28;4424074;32;20104;-67
2021/08/08 06:12:08;;;;;;;5.50;1.67;;;;;;;23.55;53.69;98781.00;4424489;32;20061;-67
2021/08/08 06:14:34;;;;;;;5.07;1.70;;;;;;;23.67;53.01;98790.75;4427567;32;20144;-67
2021/08/08 06:17:00;;;;;;;5.10;1.67;;;;;;;23.75;53.33;98794.41;4427109;32;20504;-67
2021/08/08 06:19:26;;;;;;;3.37;1.62;;;;;;;23.38;53.78;98795.16;4423780;32;20030;-67
2021/08/08 06:21:51;;;;;;;2.78;1.60;;;;;;;23.73;53.12;98797.06;4419160;32;20022;-67
2021/08/08 06:24:18;;;;;;;3.17;1.60;;;;;;;23.66;53.43;98794.19;4425092;32;20101;-66
2021/08/08 06:26:44;;;;;;;4.03;1.48;;;;;;;24.00;52.87;98800.31;4427042;32;20106;-66
2021/08/08 06:29:09;;;;;;;6.00;1.50;;;;;;;24.03;53.00;98793.41;4422386;32;20387;-67
2021/08/08 06:31:36;;;;;;;3.87;1.20;;;;;;;23.91;53.10;98804.50;4424455;32;20408;-67
2021/08/08 06:34:02;;;;;;;3.42;1.20;;;;;;;23.73;53.68;98811.41;4423137;32;20070;-66
2021/08/08 06:36:28;;;;;;;2.97;1.45;;;;;;;23.80;53.83;98809.91;4423642;32;20151;-66
2021/08/08 06:38:55;;;;;;;3.35;1.50;;;;;;;23.55;54.21;98801.09;4426141;32;20061;-66
2021/08/08 06:41:21;;;;;;;5.72;1.48;;;;;;;23.49;54.56;98809.91;4427508;32;20049;-66
2021/08/08 06:43:47;;;;;;;2.12;1.17;;;;;;;23.26;54.57;98823.47;4417146;32;20077;-66
2021/08/08 06:46:12;;;;;;;2.78;1.23;;;;;;;23.45;54.73;98818.13;4422900;32;20690;-66
2021/08/08 06:48:38;;;;;;;3.25;1.30;;;;;;;23.50;54.73;98820.03;4421284;32;20171;-66
2021/08/08 06:51:04;;;;;;;2.40;1.27;;;;;;;23.59;54.39;98812.94;4425840;32;20061;-66
2021/08/08 06:53:30;;;;;;;3.08;1.30;;;;;;;23.73;53.73;98816.41;4423644;32;20074;-67
2021/08/08 06:55:58;;;;;;;6.62;1.60;;;;;;;23.49;53.90;98812.78;4420602;32;20515;-67
2021/08/08 06:58:23;;;;;;;2.55;1.27;;;;;;;23.54;53.91;98811.06;4421882;32;20066;-67
2021/08/08 07:00:49;;;;;;;2.58;1.30;;;;;;;23.48;53.80;98816.22;4424888;32;20072;-67
2021/08/08 07:03:14;;;;;;;5.87;1.30;;;;;;;23.69;53.38;98813.94;4424693;32;20084;-67
2021/08/08 07:05:40;;;;;;;2.60;1.50;;;;;;;23.85;52.80;98820.41;4425361;32;20037;-67
2021/08/08 07:08:07;;;;;;;2.72;1.37;;;;;;;24.09;52.10;98820.59;4420828;32;20489;-67
2021/08/08 07:10:33;;;;;;;2.90;1.40;;;;;;;24.29;52.00;98813.06;4423538;32;20069;-67
2021/08/08 07:12:59;;;;;;;3.40;1.42;;;;;;;24.23;51.88;98809.63;4424542;32;20046;-67
2021/08/08 07:15:24;;;;;;;3.75;1.40;;;;;;;24.14;51.77;98821.75;4421853;32;20025;-67
2021/08/08 07:17:50;;;;;;;3.87;1.42;;;;;;;23.99;52.21;98833.25;4417278;32;20073;-67
2021/08/08 07:20:16;;;;;;;3.95;1.40;;;;;;;24.31;51.48;98825.53;4420989;32;20465;-67
2021/08/08 07:22:41;;;;;;;4.82;1.40;;;;;;;24.58;51.02;98835.19;4422104;32;20080;-67
2021/08/08 07:25:08;;;;;;;6.62;2.15;;;;;;;24.55;50.66;98841.34;4421426;32;20596;-67
2021/08/08 07:27:34;;;;;;;2.78;1.30;;;;;;;24.85;50.45;98847.78;4423633;32;20434;-67
2021/08/08 07:29:59;;;;;;;2.65;1.55;;;;;;;24.82;50.16;98851.81;4426642;32;20071;-67
2021/08/08 07:32:26;;;;;;;3.35;1.40;;;;;;;25.08;49.72;98859.94;4423143;32;20056;-67
2021/08/08 07:34:52;;;;;;;3.80;1.48;;;;;;;25.19;49.02;98859.47;4423496;32;20069;-67
2021/08/08 07:37:18;;;;;;;4.22;1.33;;;;;;;25.27;48.94;98859.44;4424567;32;20190;-67
2021/08/08 07:39:44;;;;;;;3.33;1.90;;;;;;;25.48;48.62;98857.03;4423932;32;20095;-68
2021/08/08 07:42:10;;;;;;;4.37;1.50;;;;;;;25.46;48.45;98871.25;4423545;32;20037;-68
2021/08/08 07:44:36;;;;;;;3.28;1.12;;;;;;;25.67;48.00;98871.66;4425207;32;20522;-68
2021/08/08 07:47:02;;;;;;;2.00;1.02;;;;;;;25.69;47.54;98871.09;4420797;32;20480;-68
2021/08/08 07:49:28;;;;;;;3.58;1.30;;;;;;;25.55;47.62;98869.88;4423783;32;20091;-68
2021/08/08 07:51:54;;;;;;;2.58;1.37;;;;;;;25.41;47.87;98877.25;4422117;32;20046;-68
2021/08/08 07:54:21;;;;;;;1.98;1.10;;;;;;;25.81;47.40;98872.91;4424464;32;20067;-68
2021/08/08 07:56:47;;;;;;;3.53;1.50;;;;;;;25.83;47.37;98878.84;4421817;32;20307;-68
2021/08/08 07:59:13;;;;;;;1.73;0.98;;;;;;;26.12;46.80;98882.84;4424213;32;20030;-68
2021/08/08 08:01:41;;;;;;;3.40;1.37;;;;;;;26.25;46.68;98891.19;4422406;32;20034;-68
2021/08/08 08:04:06;;;;;;;2.90;0.85;;;;;;;26.34;46.42;98890.53;4423283;32;20137;-68
2021/08/08 08:06:33;;;;;;;2.40;0.88;;;;;;;26.20;45.89;98883.53;4422654;32;20126;-68
2021/08/08 08:08:58;;;;;;;2.35;1.00;;;;;;;26.65;45.29;98890.97;4420393;32;20089;-68
2021/08/08 08:11:24;;;;;;;5.22;1.23;;;;;;;26.43;46.01;98889.09;4424472;32;20466;-68
2021/08/08 08:13:49;;;;;;;2.80;0.70;;;;;;;26.17;46.35;98895.50;4422338;32;20041;-68
2021/08/08 08:16:15;;;;;;;1.92;1.02;;;;;;;26.00;46.53;98890.47;4424125;32;20104;-68
2021/08/08 08:18:41;;;;;;;2.05;0.80;;;;;;;25.79;47.64;98901.53;4424075;32;20045;-68
2021/08/08 08:21:06;;;;;;;2.45;0.90;;;;;;;25.63;47.99;98905.13;4419242;32;20078;-68
2021/08/08 08:23:33;;;;;;;3.17;0.98;;;;;;;25.37;48.80;98912.97;4422750;32;20060;-67
2021/08/08 08:25:58;;;;;;;3.80;1.00;;;;;;;24.84;50.29;98908.78;4423890;32;20038;-66
2021/08/08 08:28:29;;;;;;;1.50;0.90;;;;;;;24.69;50.92;98908.81;4418164;32;20144;-66
2021/08/08 08:30:56;;;;;;;2.90;1.12;;;;;;;24.32;52.58;98919.03;4423214;32;20026;-67
2021/08/08 08:33:22;;;;;;;3.42;1.20;;;;;;;24.13;52.95;98923.66;4417324;32;20026;-67
2021/08/08 08:35:48;;;;;;;5.18;1.15;;;;;;;23.91;53.88;98933.03;4420429;32;20456;-67
2021/08/08 08:38:14;;;;;;;4.82;1.25;;;;;;;23.89;54.92;98924.97;4419943;32;20030;-67
2021/08/08 08:40:41;;;;;;;5.53;0.70;;;;;;;24.03;54.70;98919.84;4420830;32;20030;-67
2021/08/08 08:43:08;;;;;;;1.95;0.93;;;;;;;24.05;54.07;98932.28;4422853;32;20083;-67
2021/08/08 08:45:40;;;;;;;2.03;0.93;;;;;;;23.99;54.08;98937.44;4423530;32;20049;-66
2021/08/08 08:48:08;;;;;;;4.43;1.12;;;;;;;24.13;53.66;98940.91;4423731;32;20064;-66
2021/08/08 08:50:36;;;;;;;3.22;1.02;;;;;;;24.01;54.60;98931.12;4424320;32;20030;-66
2021/08/08 08:53:03;;;;;;;2.80;1.00;;;;;;;24.19;54.63;98944.34;4422634;32;20128;-66
2021/08/08 08:55:29;;;;;;;2.83;0.80;;;;;;;24.24;53.91;98947.03;4423797;32;20136;-67
2021/08/08 08:57:56;;;;;;;4.22;1.10;;;;;;;23.82;54.53;98942.97;4424136;32;20097;-67
2021/08/08 09:00:24;;;;;;;4.62;1.00;;;;;;;24.05;55.72;98945.91;4424201;32;20026;-67
2021/08/08 09:02:51;;;;;;;2.95;1.30;;;;;;;23.91;55.95;98956.00;4419825;32;20045;-67
2021/08/08 09:05:20;;;;;;;6.07;1.40;;;;;;;24.10;54.84;98945.69;4422624;32;20718;-67
2021/08/08 09:07:45;;;;;;;7.30;1.42;;;;;;;24.14;54.24;98951.06;4420279;32;20103;-67
2021/08/08 09:10:13;;;;;;;1.90;0.88;;;;;;;23.95;54.89;98965.81;4418998;32;20435;-67
2021/08/08 09:12:39;;;;;;;2.35;0.90;;;;;;;24.45;53.98;98966.97;4422598;32;20077;-67
2021/08/08 09:15:06;;;;;;;2.20;0.75;;;;;;;24.44;53.15;98974.81;4425336;32;20546;-67
2021/08/08 09:17:39;;;;;;;4.87;0.95;;;;;;;24.62;52.52;98970.75;4423016;32;20577;-67
2021/08/08 09:20:11;;;;;;;3.12;1.25;;;;;;;24.96;51.75;98978.94;4423405;32;20130;-67
2021/08/08 09:22:37;;;;;;;5.07;1.60;;;;;;;24.84;52.05;98984.34;4416970;32;20041;-67
2021/08/08 09:25:04;;;;;;;4.72;1.80;;;;;;;24.91;51.77;98992.19;4422205;32;20168;-67
2021/08/08 09:27:35;;;;;;;4.75;2.65;;;;;;;25.19;51.38;99000.53;4421715;32;20046;-67
2021/08/08 09:30:04;;;;;;;4.07;2.20;;;;;;;25.38;50.04;99000.13;4425239;32;20045;-68
2021/08/08 09:32:32;;;;;;;7.50;3.00;;;;;;;25.51;49.85;99005.63;4424570;32;20053;-67
2021/08/08 09:35:08;;;;;;;6.70;2.58;;;;;;;25.76;49.71;99008.56;4420262;32;20151;-67
2021/08/08 09:37:35;;;;;;;3.62;2.90;;;;;;;26.18;48.80;99012.34;4423271;32;20038;-67
2021/08/08 09:40:03;;;;;;;4.32;3.20;;;;;;;25.95;48.52;99006.72;4424960;32;20386;-67
2021/08/08 09:42:31;;;;;;;7.07;3.62;;;;;;;26.10;48.09;99009.53;4422888;32;20096;-67
2021/08/08 09:45:06;;;;;;;6.53;3.67;;;;;;;26.00;48.85;99008.66;4426261;32;20065;-66
2021/08/08 09:47:42;;;;;;;4.55;3.30;;;;;;;25.44;49.18;99017.97;4422374;32;20034;-66
2021/08/08 09:50:12;;;;;;;5.32;2.92;;;;;;;25.68;48.98;99013.62;4422281;32;20144;-67
2021/08/08 09:52:38;;;;;;;11.45;3.53;;;;;;;25.12;50.39;99023.59;4423650;32;20141;-66
2021/08/08 09:57:58;;;;;;;4.75;2.85;;;;;;;24.96;51.63;99030.75;3981117;32;15022299;-67
2021/08/08 10:00:40;;;;;;;7.35;2.92;;;;;;;24.96;51.63;99030.75;4438116;32;20130;-66
2021/08/08 10:03:08;;;;;;;6.30;2.67;;;;;;;24.65;52.59;99035.00;4437697;32;20038;-66
2021/08/08 10:05:38;;;;;;;4.95;2.65;;;;;;;24.14;53.81;99037.28;4439020;32;20103;-67
2021/08/08 10:08:09;;;;;;;9.48;2.67;;;;;;;24.15;54.34;99033.84;4434659;32;20063;-67
2021/08/08 10:10:36;;;;;;;6.03;2.47;;;;;;;24.43;53.67;99033.66;4439000;32;20029;-66
2021/08/08 10:13:41;;;;;;;6.12;2.20;;;;;;;24.50;53.05;99035.00;4436302;32;20556;-66
2021/08/08 10:16:12;;;;;;;4.35;1.70;;;;;;;24.84;52.58;99041.91;4436944;32;20090;-66
2021/08/08 10:18:44;;;;;;;4.30;2.33;;;;;;;24.69;52.32;99044.03;4438725;32;20080;-67
2021/08/08 10:21:10;;;;;;;8.70;2.92;;;;;;;24.83;52.88;99051.88;4436753;32;20148;-67
2021/08/08 10:23:38;;;;;;;7.62;2.60;;;;;;;24.87;52.79;99048.59;4438006;32;20034;-66
2021/08/08 10:26:04;;;;;;;4.12;2.17;;;;;;;24.85;52.74;99059.94;4436983;32;20033;-66
2021/08/08 10:28:31;;;;;;;5.85;2.30;;;;;;;24.85;52.94;99057.06;4433983;32;20067;-66
2021/08/08 10:31:01;;;;;;;6.68;2.72;;;;;;;24.65;53.45;99053.06;4434972;32;20415;-67
2021/08/08 10:33:27;;;;;;;5.53;2.47;;;;;;;24.78;52.90;99064.34;4431417;32;20114;-67
2021/08/08 10:35:53;;;;;;;4.10;2.62;;;;;;;24.69;53.29;99062.06;4436822;32;20075;-66
2021/08/08 10:38:20;;;;;;;10.43;3.20;;;;;;;24.33;53.34;99072.19;4432919;32;20094;-66
2021/08/08 10:40:47;;;;;;;3.55;2.80;;;;;;;24.57;53.32;99062.97;4438534;32;20033;-66
2021/08/08 10:43:24;;;;;;;6.82;3.85;;;;;;;24.33;53.31;99067.19;4434856;32;20116;-66
2021/08/08 10:46:02;;;;;;;4.05;2.80;;;;;;;24.75;52.40;99079.13;4438103;32;20622;-66
2021/08/08 10:48:33;;;;;;;7.25;3.25;;;;;;;24.83;52.79;99085.63;4436468;32;20427;-66
2021/08/08 10:50:58;;;;;;;5.12;2.80;;;;;;;25.03;52.47;99085.41;4434437;32;20427;-66
2021/08/08 10:53:29;;;;;;;3.58;2.35;;;;;;;25.11;52.20;99086.19;4435832;32;20450;-66
2021/08/08 10:56:12;;;;;;;5.32;3.15;;;;;;;25.34;50.91;99083.25;4435728;32;20119;-66
2021/08/08 10:58:40;;;;;;;2.50;2.12;;;;;;;25.84;50.40;99095.75;4432925;32;20474;-66
2021/08/08 11:01:21;;;;;;;3.35;2.08;;;;;;;25.79;50.76;99099.59;4434133;32;20033;-66
2021/08/08 11:03:56;;;;;;;2.65;1.90;;;;;;;26.20;49.45;99096.16;4436024;32;20454;-66
2021/08/08 11:06:24;;;;;;;3.65;2.22;;;;;;;26.14;49.23;99107.91;4436297;32;20077;-66
2021/08/08 11:08:52;;;;;;;5.22;2.00;;;;;;;26.38;48.50;99103.53;4425394;32;20044;-66
2021/08/08 11:11:23;;;;;;;5.60;2.60;;;;;;;26.70;48.31;99106.41;4425416;32;20042;-66
2021/08/08 11:13:49;;;;;;;5.18;2.50;;;;;;;27.32;47.68;99108.16;4426020;32;20037;-66
2021/08/08 11:16:15;;;;;;;3.47;1.90;;;;;;;27.06;47.06;99103.78;4425805;32;20161;-66
2021/08/08 11:18:41;;;;;;;4.82;2.37;;;;;;;27.40;46.22;99112.50;4427093;32;20045;-66
2021/08/08 11:21:12;;;;;;;4.30;2.45;;;;;;;27.52;46.24;99110.59;4425007;32;20127;-66
2021/08/08 11:23:38;;;;;;;5.43;2.50;;;;;;;27.59;45.58;99111.91;4425641;32;20072;-66
2021/08/08 11:26:04;;;;;;;8.23;2.65;;;;;;;27.27;45.94;99120.72;4425129;32;20458;-66
2021/08/08 11:28:29;;;;;;;4.43;2.60;;;;;;;26.90;46.97;99120.47;4425373;32;20095;-66
2021/08/08 11:30:55;;;;;;;6.47;2.60;;;;;;;26.81;47.40;99129.78;4426220;32;20374;-66
2021/08/08 11:33:26;;;;;;;6.43;3.12;;;;;;;26.85;47.01;99135.88;4428880;32;20083;-66
2021/08/08 11:36:00;;;;;;;6.32;2.55;;;;;;;26.74;47.03;99129.81;4426360;32;20083;-66
2021/08/08 11:38:30;;;;;;;6.30;2.17;;;;;;;26.96;46.99;99128.88;4424979;32;20066;-67